Time;durP1;ratioP1;P1;durP2;ratioP2;P2;SDS_P1;SDS_P2;PMS_P1;PMS_P2;Temp;Humidity;BMP_temperature;BMP_pressure;BME280_temperature;BME280_humidity;BME280_pressure;Samples;Min_cycle;Max_cycle;Signal;HPM_P1;HPM_P2
2022/01/04 00:02:14;;;;;;;;;;;;;;;4.89;100.00;98030.70;1653789;86;20078;-77
2022/01/04 00:04:40;;;;;;;;;;;;;;;4.89;100.00;98032.06;1653581;85;20183;-77
2022/01/04 00:07:07;;;;;;;;;;;;;;;4.88;100.00;98038.62;1666246;85;20478;-77
2022/01/04 00:09:40;;;;;;;;;;;;;;;4.87;100.00;98032.94;1659656;86;21822;-77
2022/01/04 00:14:51;;;;;;;;;;;;;;;4.86;100.00;98046.30;1679364;84;20124;-80
2022/01/04 00:17:17;;;;;;;;;;;;;;;4.86;100.00;98042.22;1653556;85;20447;-78
2022/01/04 00:19:44;;;;;;;;;;;;;;;4.86;100.00;98049.57;1649013;86;20177;-76
2022/01/04 00:22:12;;;;;;;;;;;;;;;4.86;100.00;98050.93;1650918;86;20107;-75
2022/01/04 00:24:38;;;;;;;;;;;;;;;4.88;100.00;98059.58;1640943;86;20089;-75
2022/01/04 00:27:06;;;;;;;;;;;;;;;4.87;100.00;98059.33;1624012;88;20456;-75
2022/01/04 00:29:34;;;;;;;;;;;;;;;4.86;100.00;98055.01;1622257;88;20147;-74
2022/01/04 00:32:02;;;;;;;;;;;;;;;4.87;100.00;98067.48;1624632;88;20131;-73
2022/01/04 00:34:29;;;;;;;;;;;;;;;4.86;100.00;98061.25;1624020;88;21120;-73
2022/01/04 00:36:55;;;;;;;;;;;;;;;4.86;100.00;98069.41;1622711;88;20144;-73
2022/01/04 00:39:21;;;;;;;;;;;;;;;4.87;100.00;98066.13;1621616;88;20182;-76
2022/01/04 00:41:48;;;;;;;;;;;;;;;4.88;100.00;98068.53;1605695;87;20481;-74
2022/01/04 00:44:16;;;;;;;;;;;;;;;4.89;100.00;98059.26;1630855;86;20205;-74
2022/01/04 00:46:42;;;;;;;;;;;;;;;4.92;100.00;98065.98;1642719;86;21110;-74
2022/01/04 00:49:09;;;;;;;;;;;;;;;4.90;100.00;98070.94;1633604;85;20124;-74
2022/01/04 00:51:38;;;;;;;;;;;;;;;4.88;100.00;98068.53;1629548;86;20184;-74
2022/01/04 00:54:04;;;;;;;;;;;;;;;4.87;100.00;98069.65;1630605;86;20146;-77
2022/01/04 00:56:31;;;;;;;;;;;;;;;4.87;100.00;98064.77;1609258;87;20163;-76
2022/01/04 00:58:59;;;;;;;;;;;;;;;4.84;100.00;98066.20;1607438;88;20120;-75
2022/01/04 01:01:26;;;;;;;;;;;;;;;4.84;100.00;98073.55;1643050;86;20139;-76
2022/01/04 01:03:52;;;;;;;;;;;;;;;4.82;100.00;98073.87;1617512;87;20446;-76
2022/01/04 01:06:19;;;;;;;;;;;;;;;4.82;100.00;98076.58;1628272;86;20217;-75
2022/01/04 01:08:45;;;;;;;;;;;;;;;4.79;100.00;98073.13;1628367;88;20122;-76
2022/01/04 01:11:13;;;;;;;;;;;;;;;4.78;100.00;98076.16;1627260;87;20107;-76
2022/01/04 01:13:40;;;;;;;;;;;;;;;4.77;100.00;98080.00;1647596;86;20487;-74
2022/01/04 01:16:09;;;;;;;;;;;;;;;4.77;100.00;98080.00;1620633;87;20425;-74
2022/01/04 01:18:36;;;;;;;;;;;;;;;4.75;100.00;98082.23;1649495;85;20119;-76
2022/01/04 01:21:04;;;;;;;;;;;;;;;4.73;100.00;98083.09;1612741;87;20092;-75
2022/01/04 01:23:31;;;;;;;;;;;;;;;4.71;100.00;98082.61;1611973;88;21175;-75
2022/01/04 01:25:58;;;;;;;;;;;;;;;4.70;100.00;98081.00;1612892;88;20133;-73
2022/01/04 01:28:26;;;;;;;;;;;;;;;4.68;100.00;98080.52;1634367;86;20229;-73
2022/01/04 01:30:52;;;;;;;;;;;;;;;4.67;100.00;98081.63;1641639;86;20186;-74
2022/01/04 01:33:19;;;;;;;;;;;;;;;4.64;100.00;98082.50;1643636;86;20132;-73
2022/01/04 01:35:47;;;;;;;;;;;;;;;4.64;100.00;98087.94;1604844;88;20495;-73
2022/01/04 01:38:14;;;;;;;;;;;;;;;4.64;100.00;98079.78;1636202;86;20133;-73
2022/01/04 01:40:41;;;;;;;;;;;;;;;4.64;100.00;98077.06;1636520;86;20157;-76
2022/01/04 01:43:08;;;;;;;;;;;;;;;4.64;100.00;98079.78;1651879;85;20127;-76
2022/01/04 01:45:34;;;;;;;;;;;;;;;4.68;100.00;98081.88;1628803;87;20083;-77
2022/01/04 01:48:01;;;;;;;;;;;;;;;4.69;100.00;98079.40;1631226;86;21508;-75
2022/01/04 01:50:28;;;;;;;;;;;;;;;4.69;100.00;98071.25;1650418;85;20227;-78
2022/01/04 01:52:54;;;;;;;;;;;;;;;4.70;100.00;98081.00;1650861;85;20076;-78
2022/01/04 01:55:21;;;;;;;;;;;;;;;4.73;100.00;98078.46;1652045;86;20743;-76
2022/01/04 01:57:49;;;;;;;;;;;;;;;4.75;100.00;98084.95;1650566;86;20097;-76
2022/01/04 02:00:16;;;;;;;;;;;;;;;4.74;100.00;98086.06;1651342;86;20980;-74
2022/01/04 02:02:43;;;;;;;;;;;;;;;4.72;100.00;98087.73;1651852;86;20153;-74
2022/01/04 02:05:09;;;;;;;;;;;;;;;4.73;100.00;98089.34;1651211;86;20133;-75
2022/01/04 02:07:36;;;;;;;;;;;;;;;4.72;100.00;98093.73;1650196;86;20402;-75
2022/01/04 02:10:05;;;;;;;;;;;;;;;4.71;100.00;98090.20;1651024;86;20419;-76
2022/01/04 02:12:36;;;;;;;;;;;;;;;4.70;100.00;98095.95;1651483;86;20132;-76
2022/01/04 02:15:05;;;;;;;;;;;;;;;4.67;100.00;98082.98;1651697;85;20127;-83
2022/01/04 02:17:31;;;;;;;;;;;;;;;4.65;100.00;98090.89;1642712;86;20093;-73
2022/01/04 02:19:58;;;;;;;;;;;;;;;4.63;100.00;98086.88;1650673;86;20169;-73
2022/01/04 02:22:26;;;;;;;;;;;;;;;4.62;100.00;98088.03;1652214;86;20243;-77
2022/01/04 02:24:54;;;;;;;;;;;;;;;4.62;100.00;98082.59;1642933;85;20076;-74
2022/01/04 02:27:21;;;;;;;;;;;;;;;4.61;100.00;98083.16;1649812;86;20235;-75
2022/01/04 02:29:48;;;;;;;;;;;;;;;4.62;100.00;98088.03;1640659;86;20544;-74
2022/01/04 02:32:14;;;;;;;;;;;;;;;4.59;100.00;98084.02;1652577;85;20588;-74
2022/01/04 02:34:43;;;;;;;;;;;;;;;4.59;100.00;98095.45;1650993;86;20156;-76
2022/01/04 02:37:09;;;;;;;;;;;;;;;4.58;100.00;98090.57;1651620;86;22179;-78
2022/01/04 02:39:38;;;;;;;;;;;;;;;4.58;100.00;98091.12;1650592;85;20169;-76
2022/01/04 02:42:05;;;;;;;;;;;;;;;4.56;100.00;98092.80;1664111;84;20153;-76
2022/01/04 02:44:32;;;;;;;;;;;;;;;4.56;100.00;98089.27;1647232;86;20446;-76
2022/01/04 02:46:59;;;;;;;;;;;;;;;4.57;100.00;98099.03;1660014;84;20210;-77
2022/01/04 02:49:25;;;;;;;;;;;;;;;4.55;100.00;98093.91;1653745;85;21563;-76
2022/01/04 02:51:52;;;;;;;;;;;;;;;4.55;100.00;98109.41;1680332;84;20479;-76
2022/01/04 02:54:18;;;;;;;;;;;;;;;4.54;100.00;98105.89;1653630;86;20132;-74
2022/01/04 02:56:45;;;;;;;;;;;;;;;4.57;100.00;98109.34;1651266;86;20131;-73
2022/01/04 02:59:11;;;;;;;;;;;;;;;4.56;100.00;98107.74;1651889;86;20173;-73
2022/01/04 03:01:37;;;;;;;;;;;;;;;4.56;100.00;98109.66;1652537;86;21429;-75
2022/01/04 03:04:04;;;;;;;;;;;;;;;4.57;100.00;98115.34;1651581;86;20350;-75
2022/01/04 03:06:31;;;;;;;;;;;;;;;4.57;100.00;98117.50;1651043;86;20164;-74
2022/01/04 03:08:57;;;;;;;;;;;;;;;4.56;100.00;98111.82;1650785;85;20460;-74
2022/01/04 03:11:23;;;;;;;;;;;;;;;4.56;100.00;98109.66;1645943;85;20170;-75
2022/01/04 03:13:52;;;;;;;;;;;;;;;4.56;100.00;98119.17;1654050;85;20532;-77
2022/01/04 03:16:18;;;;;;;;;;;;;;;4.56;100.00;98109.10;1651842;86;20125;-76
2022/01/04 03:19:03;;;;;;;;;;;;;;;4.57;100.00;98116.14;1650595;86;20132;-76
2022/01/04 03:21:13;;;;;;;;;;;;;;;4.57;100.00;98118.86;1649365;86;20148;-75
2022/01/04 03:23:40;;;;;;;;;;;;;;;4.58;100.00;98119.11;1637343;86;20145;-70
2022/01/04 03:26:06;;;;;;;;;;;;;;;4.59;100.00;98116.63;1650249;86;21528;-69
2022/01/04 03:28:34;;;;;;;;;;;;;;;4.58;100.00;98117.75;1651168;86;20088;-68
2022/01/04 03:31:00;;;;;;;;;;;;;;;4.58;100.00;98127.81;1649872;86;20435;-74
2022/01/04 03:33:26;;;;;;;;;;;;;;;4.57;100.00;98127.02;1653997;85;20204;-74
2022/01/04 03:35:54;;;;;;;;;;;;;;;4.57;100.00;98127.57;1652097;85;20092;-77
2022/01/04 03:38:20;;;;;;;;;;;;;;;4.56;100.00;98132.20;1652453;86;21195;-72
2022/01/04 03:40:47;;;;;;;;;;;;;;;4.55;100.00;98128.44;1652898;86;20114;-72
2022/01/04 03:43:14;;;;;;;;;;;;;;;4.54;100.00;98124.92;1660084;86;20106;-77
2022/01/04 03:45:41;;;;;;;;;;;;;;;4.54;100.00;98130.91;1660090;86;20601;-76
2022/01/04 03:48:07;;;;;;;;;;;;;;;4.55;100.00;98142.02;1652308;86;20128;-75
2022/01/04 03:50:33;;;;;;;;;;;;;;;4.54;100.00;98142.58;1644868;85;21091;-73
2022/01/04 03:53:01;;;;;;;;;;;;;;;4.53;100.00;98148.33;1617329;88;20735;-71
2022/01/04 03:55:27;;;;;;;;;;;;;;;4.52;100.00;98151.59;1606612;88;20489;-72
2022/01/04 03:57:53;;;;;;;;;;;;;;;4.51;100.00;98150.55;1630044;88;20126;-75
2022/01/04 04:00:20;;;;;;;;;;;;;;;4.49;100.00;98154.13;1623886;87;20129;-75
2022/01/04 04:02:46;;;;;;;;;;;;;;;4.47;100.00;98150.37;1606792;89;21111;-74
2022/01/04 04:05:15;;;;;;;;;;;;;;;4.46;100.00;98154.20;1606461;89;20144;-78
2022/01/04 04:07:42;;;;;;;;;;;;;;;4.43;100.00;98153.45;1606507;89;20156;-79
2022/01/04 04:10:09;;;;;;;;;;;;;;;4.41;100.00;98161.11;1606517;89;20104;-74
2022/01/04 04:12:37;;;;;;;;;;;;;;;4.39;100.00;98159.26;1606635;88;20126;-69
2022/01/04 04:15:08;;;;;;;;;;;;;;;4.38;100.00;98164.45;1606749;89;21130;-75
2022/01/04 04:17:35;;;;;;;;;;;;;;;4.37;100.00;98167.47;1606891;88;20101;-75
2022/01/04 04:20:03;;;;;;;;;;;;;;;4.35;100.00;98167.78;1606473;89;20120;-72
2022/01/04 04:22:31;;;;;;;;;;;;;;;4.35;100.00;98169.69;1606587;89;20609;-72
2022/01/04 04:24:58;;;;;;;;;;;;;;;4.35;100.00;98167.78;1631058;87;20092;-71
2022/01/04 04:27:24;;;;;;;;;;;;;;;4.34;100.00;98160.73;1633297;87;21241;-71
2022/01/04 04:29:50;;;;;;;;;;;;;;;4.34;100.00;98164.81;1633285;88;20117;-71
2022/01/04 04:32:17;;;;;;;;;;;;;;;4.33;100.00;98163.77;1633285;86;20104;-70
2022/01/04 04:34:43;;;;;;;;;;;;;;;4.33;100.00;98171.36;1633187;87;20553;-70
2022/01/04 04:37:10;;;;;;;;;;;;;;;4.32;100.00;98173.83;1633283;88;20188;-68
2022/01/04 04:39:36;;;;;;;;;;;;;;;4.31;100.00;98173.02;1633294;87;21166;-71
2022/01/04 04:42:04;;;;;;;;;;;;;;;4.30;100.00;98174.69;1633223;88;20143;-75
2022/01/04 04:44:30;;;;;;;;;;;;;;;4.30;100.00;98181.48;1633196;88;20100;-70
2022/01/04 04:46:57;;;;;;;;;;;;;;;4.29;100.00;98175.80;1633398;88;20104;-70
2022/01/04 04:49:23;;;;;;;;;;;;;;;4.29;100.00;98182.59;1645793;86;20143;-70
2022/01/04 04:51:50;;;;;;;;;;;;;;;4.29;100.00;98185.31;1650567;86;21899;-70
2022/01/04 04:54:16;;;;;;;;;;;;;;;4.29;100.00;98194.81;1649925;86;20170;-71
2022/01/04 04:56:43;;;;;;;;;;;;;;;4.28;100.00;98194.56;1635668;86;20144;-70
2022/01/04 04:59:09;;;;;;;;;;;;;;;4.27;100.00;98196.48;1631980;88;20092;-69
2022/01/04 05:01:36;;;;;;;;;;;;;;;4.26;100.00;98207.10;1629266;87;20129;-69
2022/01/04 05:04:03;;;;;;;;;;;;;;;4.25;100.00;98203.33;1630609;86;23299;-81
2022/01/04 05:06:33;;;;;;;;;;;;;;;4.25;100.00;98208.77;1631342;88;20118;-69
2022/01/04 05:08:57;;;;;;;;;;;;;;;4.24;100.00;98210.68;1631327;87;20144;-69
2022/01/04 05:11:24;;;;;;;;;;;;;;;4.24;100.00;98218.02;1611847;88;20151;-69
2022/01/04 05:13:51;;;;;;;;;;;;;;;4.24;100.00;98213.39;1631581;87;20092;-69
2022/01/04 05:16:17;;;;;;;;;;;;;;;4.23;100.00;98208.27;1630695;88;21161;-68
2022/01/04 05:18:43;;;;;;;;;;;;;;;4.22;100.00;98215.61;1630372;87;20124;-70
2022/01/04 05:21:10;;;;;;;;;;;;;;;4.23;100.00;98221.30;1631689;86;20447;-70
2022/01/04 05:23:46;;;;;;;;;;;;;;;4.25;100.00;98219.08;1607710;88;20084;-69
2022/01/04 05:26:11;;;;;;;;;;;;;;;4.26;100.00;98222.59;1630838;86;20117;-70
2022/01/04 05:28:38;;;;;;;;;;;;;;;4.27;100.00;98230.99;1631707;87;22001;-73
2022/01/04 05:31:09;;;;;;;;;;;;;;;4.25;100.00;98228.58;1630832;87;20454;-73
2022/01/04 05:33:34;;;;;;;;;;;;;;;4.28;100.00;98236.12;1631246;88;20133;-74
2022/01/04 05:36:18;;;;;;;;;;;;;;;4.29;100.00;98238.28;1631468;88;20475;-75
2022/01/04 05:38:35;;;;;;;;;;;;;;;4.28;100.00;98242.11;1624702;88;20443;-76
2022/01/04 05:41:06;;;;;;;;;;;;;;;4.28;100.00;98240.75;1655480;85;21185;-73
2022/01/04 05:43:39;;;;;;;;;;;;;;;4.28;100.00;98248.34;1628028;86;20153;-74
2022/01/04 05:46:09;;;;;;;;;;;;;;;4.27;100.00;98238.59;1649703;86;20115;-75
2022/01/04 05:48:42;;;;;;;;;;;;;;;4.25;100.00;98236.73;1652647;87;20768;-75
2022/01/04 05:51:07;;;;;;;;;;;;;;;4.26;100.00;98240.25;1650604;87;20452;-75
2022/01/04 05:53:39;;;;;;;;;;;;;;;4.24;100.00;98249.27;1630188;86;21113;-74
2022/01/04 05:56:07;;;;;;;;;;;;;;;4.22;100.00;98246.05;1625085;87;20423;-74
2022/01/04 05:58:37;;;;;;;;;;;;;;;4.21;100.00;98249.88;1625052;88;20472;-67
2022/01/04 06:01:10;;;;;;;;;;;;;;;4.15;100.00;98253.81;1624613;88;20092;-76
2022/01/04 06:03:38;;;;;;;;;;;;;;;4.11;100.00;98254.97;1601974;88;20117;-77
2022/01/04 06:06:11;;;;;;;;;;;;;;;4.07;100.00;98258.59;1625363;88;21970;-76
2022/01/04 06:08:44;;;;;;;;;;;;;;;4.04;100.00;98259.23;1625166;88;20104;-71
2022/01/04 06:16:50;;;;;;;;;;;;;;;3.96;100.00;98267.55;1624739;88;20206;-77
2022/01/04 06:19:26;;;;;;;;;;;;;;;3.91;100.00;98271.16;1624695;88;21838;-78
2022/01/04 06:21:52;;;;;;;;;;;;;;;3.88;100.00;98281.27;1623871;88;20109;-77
2022/01/04 06:24:23;;;;;;;;;;;;;;;3.85;100.00;98283.23;1624508;88;20100;-78
2022/01/04 06:26:57;;;;;;;;;;;;;;;3.84;100.00;98286.25;1609967;87;20154;-78
2022/01/04 06:29:28;;;;;;;;;;;;;;;3.85;100.00;98294.09;1652226;86;20495;-76
2022/01/04 06:32:03;;;;;;;;;;;;;;;3.86;100.00;98286.20;1652891;86;21135;-76
2022/01/04 06:34:33;;;;;;;;;;;;;;;3.84;100.00;98295.20;1652546;86;20118;-80
2022/01/04 06:37:06;;;;;;;;;;;;;;;3.82;100.00;98297.97;1624538;87;20098;-78
2022/01/04 06:39:31;;;;;;;;;;;;;;;3.78;100.00;98300.48;1639889;86;20390;-80
2022/01/04 06:42:03;;;;;;;;;;;;;;;3.75;100.00;98297.01;1639008;87;20126;-79
2022/01/04 06:44:36;;;;;;;;;;;;;;;3.72;100.00;98298.97;1638091;87;21120;-78
2022/01/04 06:47:03;;;;;;;;;;;;;;;3.68;100.00;98298.52;1637673;86;20117;-76
2022/01/04 06:49:37;;;;;;;;;;;;;;;3.65;100.00;98303.98;1637769;86;20106;-75
2022/01/04 06:52:20;;;;;;;;;;;;;;;3.64;100.00;98306.45;1638882;87;20194;-81
2022/01/04 06:54:35;;;;;;;;;;;;;;;3.72;100.00;98304.39;1635426;86;20208;-81
2022/01/04 06:57:07;;;;;;;;;;;;;;;3.87;100.00;98306.02;1637240;87;20850;-77
2022/01/04 06:59:36;;;;;;;;;;;;;;;4.09;100.00;98308.79;1637135;87;20192;-75
2022/01/04 07:02:10;;;;;;;;;;;;;;;4.43;100.00;98312.42;1624686;87;20115;-79
2022/01/04 07:04:42;;;;;;;;;;;;;;;4.75;100.00;98309.23;1652588;86;20106;-79
2022/01/04 07:07:15;;;;;;;;;;;;;;;5.06;100.00;98306.04;1620493;87;20173;-77
2022/01/04 07:09:46;;;;;;;;;;;;;;;5.38;100.00;98300.85;1631798;86;22238;-85
2022/01/04 07:12:20;;;;;;;;;;;;;;;5.70;100.00;98296.22;1626624;88;20136;-78
2022/01/04 07:14:45;;;;;;;;;;;;;;;5.95;100.00;98296.31;1606452;88;20097;-76
2022/01/04 07:17:20;;;;;;;;;;;;;;;6.05;100.00;98301.23;1636334;87;20128;-78
2022/01/04 07:19:53;;;;;;;;;;;;;;;6.01;100.00;98301.06;1632045;86;20113;-84
2022/01/04 07:22:25;;;;;;;;;;;;;;;6.07;100.00;98297.64;1638789;87;21196;-83
2022/01/04 07:24:54;;;;;;;;;;;;;;;6.14;100.00;98306.16;1653291;86;20118;-80
2022/01/04 07:27:22;;;;;;;;;;;;;;;6.16;100.00;98299.27;1631226;87;20078;-77
2022/01/04 07:29:51;;;;;;;;;;;;;;;6.29;100.00;98311.16;1653384;87;38906;-87
2022/01/04 07:32:21;;;;;;;;;;;;;;;6.47;98.18;98310.05;1652317;86;20102;-78
2022/01/04 07:34:51;;;;;;;;;;;;;;;6.52;97.40;98312.62;1641616;86;21165;-82
2022/01/04 07:37:23;;;;;;;;;;;;;;;6.31;96.14;98310.84;1639410;87;20091;-83
2022/01/04 07:39:50;;;;;;;;;;;;;;;6.04;95.96;98305.88;1615332;87;20133;-83
2022/01/04 07:42:19;;;;;;;;;;;;;;;6.05;97.38;98314.86;1639476;87;20671;-84
2022/01/04 07:44:47;;;;;;;;;;;;;;;6.20;95.88;98311.70;1639432;87;20096;-82
2022/01/04 07:47:15;;;;;;;;;;;;;;;6.38;95.01;98313.31;1637328;86;22332;-79
2022/01/04 07:49:47;;;;;;;;;;;;;;;6.68;94.28;98319.78;1637115;86;20456;-76
2022/01/04 07:52:16;;;;;;;;;;;;;;;6.86;91.20;98306.95;1644464;84;20202;-81
2022/01/04 07:54:51;;;;;;;;;;;;;;;6.92;90.16;98311.13;1615917;87;20256;-81
2022/01/04 07:57:23;;;;;;;;;;;;;;;7.10;89.81;98318.15;1637801;86;20089;-80
2022/01/04 07:59:55;;;;;;;;;;;;;;;7.34;87.80;98316.84;1641029;86;20090;-80
2022/01/04 08:02:26;;;;;;;;;;;;;;;7.53;87.65;98315.88;1640127;86;20088;-78
2022/01/04 08:04:50;;;;;;;;;;;;;;;7.83;85.55;98318.92;1628252;86;20097;-78
2022/01/04 08:07:20;;;;;;;;;;;;;;;7.93;83.12;98315.84;1653529;84;20316;-81
2022/01/04 08:09:48;;;;;;;;;;;;;;;7.97;83.00;98322.02;1673168;84;20315;-81
2022/01/04 08:12:19;;;;;;;;;;;;;;;7.91;83.60;98322.19;1677806;83;21487;-85
2022/01/04 08:14:50;;;;;;;;;;;;;;;7.96;82.81;98319.84;1657508;84;20107;-85
2022/01/04 08:17:17;;;;;;;;;;;;;;;8.10;82.32;98321.77;1667728;84;20125;-88
2022/01/04 08:19:52;;;;;;;;;;;;;;;8.12;81.88;98324.97;1654339;83;20160;-84
2022/01/04 08:22:19;;;;;;;;;;;;;;;7.79;80.40;98324.80;1632017;86;20132;-85
2022/01/04 08:24:49;;;;;;;;;;;;;;;7.29;81.92;98326.80;1638216;85;21534;-90
2022/01/04 08:27:15;;;;;;;;;;;;;;;6.81;83.79;98328.38;1631733;86;20545;-84
2022/01/04 08:29:45;;;;;;;;;;;;;;;6.41;85.60;98320.86;1643088;85;20118;-83
2022/01/04 08:32:11;;;;;;;;;;;;;;;6.09;87.19;98330.81;1650033;86;20552;-78
2022/01/04 08:34:40;;;;;;;;;;;;;;;5.88;89.11;98325.09;1654337;86;20147;-79
2022/01/04 08:37:10;;;;;;;;;;;;;;;5.81;90.99;98327.47;1650100;86;21122;-80
2022/01/04 08:39:36;;;;;;;;;;;;;;;5.78;91.83;98333.55;1642026;86;20151;-78
2022/01/04 08:42:06;;;;;;;;;;;;;;;5.94;92.82;98330.68;1629023;86;20110;-78
2022/01/04 08:44:39;;;;;;;;;;;;;;;6.30;93.62;98329.12;1630673;86;20492;-79
2022/01/04 08:47:07;;;;;;;;;;;;;;;6.69;92.20;98334.22;1651699;85;20454;-73
2022/01/04 08:49:35;;;;;;;;;;;;;;;7.08;90.63;98331.31;1652884;86;21975;-75
2022/01/04 08:52:05;;;;;;;;;;;;;;;7.31;87.98;98325.11;1657433;85;20492;-76
2022/01/04 08:54:40;;;;;;;;;;;;;;;7.60;88.72;98324.38;1653936;85;20118;-74
2022/01/04 08:57:04;;;;;;;;;;;;;;;7.86;87.01;98316.11;1646402;86;20220;-75
2022/01/04 08:59:33;;;;;;;;;;;;;;;8.10;84.27;98325.86;1661139;85;20160;-74
2022/01/04 09:02:07;;;;;;;;;;;;;;;8.19;83.40;98320.36;1647899;86;21087;-77
2022/01/04 09:04:40;;;;;;;;;;;;;;;8.30;81.67;98325.69;1665126;85;20263;-80
2022/01/04 09:07:05;;;;;;;;;;;;;;;8.36;82.09;98333.16;1669549;85;20149;-71
2022/01/04 09:09:39;;;;;;;;;;;;;;;8.21;81.19;98336.66;1639377;85;20117;-87
2022/01/04 09:12:08;;;;;;;;;;;;;;;7.91;81.61;98335.86;1620053;86;20691;-74
2022/01/04 09:14:44;;;;;;;;;;;;;;;7.57;82.71;98333.22;1643244;83;21550;-74
2022/01/04 09:20:06;;;;;;;;;;;;;;;7.52;85.69;98320.55;1622125;84;20144;-74
2022/01/04 09:22:36;;;;;;;;;;;;;;;7.88;83.35;98318.75;1642257;85;20618;-73
2022/01/04 09:25:09;;;;;;;;;;;;;;;8.09;81.63;98322.09;1653313;84;20160;-72
2022/01/04 09:27:37;;;;;;;;;;;;;;;8.04;81.68;98325.84;1640242;85;20166;-73
2022/01/04 09:30:08;;;;;;;;;;;;;;;7.92;82.18;98332.56;1637749;85;20129;-70
2022/01/04 09:32:36;;;;;;;;;;;;;;;7.72;82.52;98327.24;1646898;85;20156;-82
2022/01/04 09:35:11;;;;;;;;;;;;;;;7.53;83.46;98331.70;1636933;85;20145;-73
2022/01/04 09:37:40;;;;;;;;;;;;;;;7.28;83.91;98333.38;1645529;83;20189;-78
2022/01/04 09:40:12;;;;;;;;;;;;;;;7.00;85.08;98336.77;1636143;85;21166;-76
2022/01/04 09:42:40;;;;;;;;;;;;;;;6.75;85.67;98335.11;1633784;85;20258;-74
2022/01/04 09:45:15;;;;;;;;;;;;;;;6.59;86.92;98336.12;1637429;86;20163;-84
2022/01/04 09:47:42;;;;;;;;;;;;;;;6.50;88.03;98337.23;1635705;86;20151;-76
2022/01/04 09:50:11;;;;;;;;;;;;;;;6.45;89.64;98340.91;1635366;85;20096;-74
2022/01/04 09:52:46;;;;;;;;;;;;;;;6.38;88.49;98340.58;1659843;84;21653;-75
2022/01/04 09:55:15;;;;;;;;;;;;;;;6.30;88.27;98345.47;1651609;85;20193;-79
2022/01/04 09:57:39;;;;;;;;;;;;;;;6.26;88.35;98345.30;1663761;84;21127;-77
2022/01/04 10:00:07;;;;;;;;;;;;;;;6.30;88.82;98344.11;1679869;84;20195;-82
2022/01/04 10:02:35;;;;;;;;;;;;;;;6.41;88.75;98340.50;1679660;84;20142;-78
2022/01/04 10:05:16;;;;;;;;;;;;;;;6.53;87.38;98331.14;1644178;85;21138;-86
2022/01/04 10:07:44;;;;;;;;;;;;;;;6.61;87.67;98345.36;1645802;85;20174;-85
2022/01/04 10:10:12;;;;;;;;;;;;;;;6.63;87.06;98343.91;1646910;86;20137;-81
2022/01/04 10:12:55;;;;;;;;;;;;;;;6.61;87.08;98339.90;1644150;86;20165;-73
2022/01/04 10:15:33;;;;;;;;;;;;;;;6.55;86.69;98338.45;1680507;84;20190;-79
2022/01/04 10:18:03;;;;;;;;;;;;;;;6.48;87.36;98341.64;1675348;84;20969;-75
2022/01/04 10:20:29;;;;;;;;;;;;;;;6.54;88.25;98339.56;1681558;84;20487;-73
2022/01/04 10:23:00;;;;;;;;;;;;;;;7.05;89.43;98336.61;1624657;86;20193;-74
2022/01/04 10:25:26;;;;;;;;;;;;;;;7.89;86.77;98342.21;1609413;86;20151;-73
2022/01/04 10:27:53;;;;;;;;;;;;;;;8.53;83.08;98341.27;1683692;84;20172;-71
2022/01/04 10:30:23;;;;;;;;;;;;;;;8.95;79.48;98333.88;1650621;85;21770;-78
2022/01/04 10:33:12;;;;;;;;;;;;;;;9.30;77.38;98329.44;1645077;85;20135;-73
2022/01/04 10:35:44;;;;;;;;;;;;;;;9.46;74.19;98326.30;1643174;85;20164;-72
2022/01/04 10:38:20;;;;;;;;;;;;;;;9.17;74.50;98336.27;1644456;85;20662;-73
2022/01/04 10:41:05;;;;;;;;;;;;;;;8.99;75.57;98344.39;1643264;85;20176;-73
2022/01/04 10:43:35;;;;;;;;;;;;;;;8.86;75.58;98344.88;1642104;84;21720;-71
2022/01/04 10:46:04;;;;;;;;;;;;;;;8.58;75.66;98339.71;1649044;84;20157;-73
2022/01/04 10:48:34;;;;;;;;;;;;;;;8.28;76.32;98332.84;1650298;85;20145;-72
2022/01/04 10:51:10;;;;;;;;;;;;;;;8.45;77.46;98328.45;1680677;84;20165;-70
2022/01/04 10:53:42;;;;;;;;;;;;;;;8.78;76.54;98340.27;1680591;84;20185;-69
2022/01/04 10:56:15;;;;;;;;;;;;;;;9.06;75.41;98322.75;1683750;84;21147;-70
2022/01/04 10:58:47;;;;;;;;;;;;;;;9.28;74.56;98325.09;1687207;84;20239;-73
2022/01/04 11:01:16;;;;;;;;;;;;;;;9.53;72.65;98326.56;1672465;84;20165;-74
2022/01/04 11:03:47;;;;;;;;;;;;;;;9.32;71.89;98318.95;1653334;85;20585;-75
2022/01/04 11:06:37;;;;;;;;;;;;;;;8.82;73.54;98325.36;1649044;86;20179;-77
2022/01/04 11:09:05;;;;;;;;;;;;;;;8.39;74.86;98322.37;1636178;85;21228;-75
2022/01/04 11:11:31;;;;;;;;;;;;;;;7.99;76.81;98325.22;1647696;86;20307;-77
2022/01/04 11:13:58;;;;;;;;;;;;;;;7.71;78.03;98329.73;1655842;85;20185;-77
2022/01/04 11:16:28;;;;;;;;;;;;;;;7.50;78.96;98332.38;1651271;85;20516;-74
2022/01/04 11:18:59;;;;;;;;;;;;;;;7.34;79.84;98329.13;1637700;86;20220;-75
2022/01/04 11:21:37;;;;;;;;;;;;;;;7.17;80.84;98323.92;1652007;86;21787;-76
2022/01/04 11:24:07;;;;;;;;;;;;;;;7.05;81.59;98329.79;1648179;86;20172;-75
2022/01/04 11:26:34;;;;;;;;;;;;;;;6.93;82.41;98326.38;1643329;86;20135;-76
2022/01/04 11:29:00;;;;;;;;;;;;;;;6.79;83.29;98336.08;1650754;85;20133;-76
2022/01/04 11:31:45;;;;;;;;;;;;;;;6.70;84.07;98337.98;1630754;86;20207;-76
2022/01/04 11:34:40;;;;;;;;;;;;;;;6.63;84.57;98339.83;1625000;87;21095;-76
2022/01/04 11:37:10;;;;;;;;;;;;;;;6.58;85.67;98333.16;1625846;85;20316;-76
2022/01/04 11:39:41;;;;;;;;;;;;;;;6.53;85.96;98331.95;1648699;85;20216;-77
2022/01/04 11:42:11;;;;;;;;;;;;;;;6.46;86.16;98333.54;1625509;86;20498;-76
2022/01/04 11:44:44;;;;;;;;;;;;;;;6.42;86.67;98336.09;1629123;86;20175;-76
2022/01/04 11:47:15;;;;;;;;;;;;;;;6.40;87.12;98334.25;1647046;86;20589;-75
2022/01/04 11:50:10;;;;;;;;;;;;;;;6.43;87.61;98332.81;1675511;84;20249;-76
2022/01/04 11:52:44;;;;;;;;;;;;;;;6.43;87.51;98330.89;1689277;84;20463;-77
2022/01/04 11:55:33;;;;;;;;;;;;;;;6.43;87.69;98332.81;1685597;84;20158;-76
2022/01/04 11:58:09;;;;;;;;;;;;;;;6.48;88.07;98334.02;1679349;84;20180;-76
2022/01/04 12:00:38;;;;;;;;;;;;;;;6.57;88.46;98328.83;1658869;85;21179;-77
2022/01/04 12:03:18;;;;;;;;;;;;;;;6.88;89.26;98321.88;1678725;84;20120;-76
2022/01/04 12:05:58;;;;;;;;;;;;;;;7.66;88.46;98315.45;1651446;86;20152;-77
2022/01/04 12:08:35;;;;;;;;;;;;;;;8.29;84.25;98315.31;1652263;85;20562;-77
2022/01/04 12:11:02;;;;;;;;;;;;;;;8.56;81.32;98326.37;1646896;85;20206;-77
2022/01/04 12:13:49;;;;;;;;;;;;;;;8.43;78.85;98330.15;1667524;84;20436;-77
2022/01/04 12:16:17;;;;;;;;;;;;;;;8.13;78.84;98334.77;1671682;85;20276;-74
2022/01/04 12:18:47;;;;;;;;;;;;;;;7.75;79.23;98337.52;1651483;85;20176;-76
2022/01/04 12:21:16;;;;;;;;;;;;;;;7.48;80.14;98346.13;1671491;85;20208;-76
2022/01/04 12:23:48;;;;;;;;;;;;;;;7.31;81.30;98336.03;1641818;86;20174;-76
2022/01/04 12:26:19;;;;;;;;;;;;;;;7.27;81.85;98339.16;1651622;85;21180;-76
2022/01/04 12:29:01;;;;;;;;;;;;;;;7.26;82.13;98339.73;1681264;84;20099;-76
2022/01/04 12:31:30;;;;;;;;;;;;;;;7.26;82.33;98338.36;1665975;84;20169;-76
2022/01/04 12:34:01;;;;;;;;;;;;;;;7.23;82.12;98338.20;1640140;85;20232;-74
2022/01/04 12:36:33;;;;;;;;;;;;;;;7.19;82.11;98333.95;1657329;85;20177;-78
2022/01/04 12:39:01;;;;;;;;;;;;;;;7.14;82.43;98331.39;1649695;84;21170;-73
2022/01/04 12:41:30;;;;;;;;;;;;;;;7.38;82.75;98328.16;1645618;85;20515;-77
2022/01/04 12:43:56;;;;;;;;;;;;;;;7.81;82.55;98319.02;1645074;86;20433;-75
2022/01/04 12:46:32;;;;;;;;;;;;;;;8.48;81.84;98327.78;1637308;86;20205;-74
2022/01/04 12:49:01;;;;;;;;;;;;;;;9.18;78.65;98334.33;1664645;84;20240;-75
2022/01/04 12:51:32;;;;;;;;;;;;;;;9.74;75.28;98336.89;1630294;86;21089;-77
2022/01/04 12:54:09;;;;;;;;;;;;;;;10.17;74.65;98330.07;1652472;85;20509;-77
2022/01/04 12:56:46;;;;;;;;;;;;;;;10.72;72.30;98323.98;1646271;85;20152;-74
2022/01/04 12:59:35;;;;;;;;;;;;;;;11.09;70.06;98327.41;1642491;84;20288;-75
2022/01/04 13:02:05;;;;;;;;;;;;;;;11.29;68.51;98330.31;1635317;85;20211;-75
2022/01/04 13:04:34;;;;;;;;;;;;;;;11.40;67.42;98335.54;1635860;85;20799;-78
2022/01/04 13:07:02;;;;;;;;;;;;;;;11.38;65.33;98336.47;1658756;84;20186;-74
2022/01/04 13:09:28;;;;;;;;;;;;;;;11.31;65.72;98330.77;1646731;85;20156;-73
2022/01/04 13:11:59;;;;;;;;;;;;;;;11.34;65.80;98336.36;1658886;85;20218;-76
2022/01/04 13:14:29;;;;;;;;;;;;;;;11.38;65.28;98339.21;1648828;84;20226;-74